Schedule Details


Flight Number: CTN417
Departure: Frankfurt/main (EDDF) at 10:05
Arrival: Franjo Tudman (LDZA) at 11:30
Route: NOMBO UZ738 MUN UM867 VAROB DCT PIKIT DCT ARGOM

Weather Information
EDDF 081250Z 14005KT 080V170 CAVOK 23/02 Q1024 NOSIG
LDZA 081230Z 08006KT 330V140 CAVOK 20/M05 Q1027 NOSIG
Schedule Frequency

Route Map